Time;durP1;ratioP1;P1;durP2;ratioP2;P2;SDS_P1;SDS_P2;PMS_P1;PMS_P2;Temp;Humidity;BMP_temperature;BMP_pressure;BME280_temperature;BME280_humidity;BME280_pressure;Samples;Min_cycle;Max_cycle;Signal;HPM_P1;HPM_P2
2022/09/15 00:01:15;;;;;;;5.50;1.67;;;;;;;15.73;73.88;94504.44;5131263;27;20667;-75
2022/09/15 00:03:42;;;;;;;3.83;2.22;;;;;;;15.58;74.90;94485.06;5130144;27;20201;-74
2022/09/15 00:06:10;;;;;;;3.28;2.10;;;;;;;15.82;73.78;94483.16;5130477;27;20282;-74
2022/09/15 00:08:37;;;;;;;4.75;2.65;;;;;;;15.91;73.82;94480.97;5130820;27;20209;-75
2022/09/15 00:11:08;;;;;;;6.82;2.65;;;;;;;15.91;73.98;94480.97;5130846;27;20208;-75
2022/09/15 00:13:38;;;;;;;7.88;2.45;;;;;;;15.76;74.23;94484.59;5131038;27;20193;-75
2022/09/15 00:16:05;;;;;;;6.38;2.20;;;;;;;15.91;73.06;94491.88;5131091;27;20281;-75
2022/09/15 00:18:32;;;;;;;3.83;2.45;;;;;;;16.15;72.28;94486.03;5131042;27;20196;-75
2022/09/15 00:20:59;;;;;;;4.93;2.20;;;;;;;16.01;72.41;94491.25;5130945;27;20689;-75
2022/09/15 00:23:26;;;;;;;2.97;2.42;;;;;;;15.90;73.61;94482.09;5130570;27;20224;-75
2022/09/15 00:25:53;;;;;;;6.88;2.60;;;;;;;15.71;74.53;94504.03;5130825;27;20233;-75
2022/09/15 00:28:22;;;;;;;4.07;2.65;;;;;;;15.71;74.33;94493.09;5124533;27;20565;-75
2022/09/15 00:30:52;;;;;;;2.63;1.98;;;;;;;15.67;74.49;94497.69;5131058;27;20211;-75
2022/09/15 00:33:20;;;;;;;5.68;2.97;;;;;;;15.67;74.72;94492.25;5130576;27;20193;-75
2022/09/15 00:35:49;;;;;;;6.38;2.33;;;;;;;15.60;74.99;94493.69;5130161;27;20580;-75
2022/09/15 00:38:17;;;;;;;4.82;2.70;;;;;;;15.63;75.65;94486.72;5130688;27;20205;-75
2022/09/15 00:40:46;;;;;;;3.90;2.50;;;;;;;15.80;74.06;94485.44;5130904;27;20208;-75
2022/09/15 00:43:13;;;;;;;6.00;2.72;;;;;;;16.10;72.74;94488.31;5130045;27;20217;-75
2022/09/15 00:45:40;;;;;;;3.65;2.38;;;;;;;16.30;71.09;94487.84;5129734;28;20609;-75
2022/09/15 00:48:22;;;;;;;8.05;2.72;;;;;;;16.39;70.37;94486.81;5130312;27;20240;-75
2022/09/15 00:50:53;;;;;;;8.77;2.63;;;;;;;16.28;71.11;94487.41;5130717;27;20200;-75
2022/09/15 00:53:22;;;;;;;4.55;2.80;;;;;;;16.21;71.80;94484.59;5130920;28;20201;-75
2022/09/15 00:55:50;;;;;;;3.45;2.60;;;;;;;16.05;72.94;94481.19;5130808;28;20197;-75
2022/09/15 00:58:23;;;;;;;5.75;2.42;;;;;;;15.95;73.51;94492.75;5130595;27;20273;-75
2022/09/15 01:00:55;;;;;;;2.92;2.28;;;;;;;15.90;73.18;94493.03;5130808;28;20189;-75
2022/09/15 01:03:24;;;;;;;6.55;2.50;;;;;;;15.57;75.44;94499.09;5130508;28;20189;-75
2022/09/15 01:05:55;;;;;;;4.38;2.70;;;;;;;15.58;75.08;94485.06;5130131;27;20225;-74
2022/09/15 01:08:27;;;;;;;3.67;2.47;;;;;;;15.53;75.07;94493.53;5130669;27;20210;-74
2022/09/15 01:10:54;;;;;;;4.18;2.55;;;;;;;15.57;74.76;94482.72;5130671;28;20197;-75
2022/09/15 01:13:21;;;;;;;2.92;2.40;;;;;;;15.57;74.61;94486.25;5130826;28;20205;-74
2022/09/15 01:15:57;;;;;;;3.05;2.05;;;;;;;15.60;75.82;94477.28;5130643;27;20831;-74
2022/09/15 01:18:34;;;;;;;5.00;3.33;;;;;;;15.67;74.49;94492.25;5130181;27;20226;-75
2022/09/15 01:21:16;;;;;;;4.93;2.58;;;;;;;15.41;76.21;94490.19;5116975;28;20193;-73
2022/09/15 01:24:21;;;;;;;4.70;2.90;;;;;;;15.46;75.64;94481.66;5130151;27;20305;-75
2022/09/15 01:26:58;;;;;;;7.35;3.25;;;;;;;15.72;74.10;94486.47;5113556;28;20224;-75
2022/09/15 01:30:18;;;;;;;3.25;2.40;;;;;;;15.90;72.24;94484.84;5131078;27;20670;-75
2022/09/15 01:33:04;;;;;;;5.03;2.70;;;;;;;16.12;71.09;94475.84;5054996;28;20660;-75
2022/09/15 01:35:59;;;;;;;3.60;2.67;;;;;;;16.12;72.02;94481.31;5133526;27;20195;-74
2022/09/15 01:38:42;;;;;;;3.88;2.70;;;;;;;15.96;72.52;94473.25;5104416;27;20292;-73
2022/09/15 01:41:15;;;;;;;2.90;2.28;;;;;;;15.89;72.32;94475.06;5133976;27;20240;-75
2022/09/15 01:43:50;;;;;;;4.75;2.72;;;;;;;15.81;72.86;94476.91;5120633;27;20217;-76
2022/09/15 01:46:20;;;;;;;5.80;2.75;;;;;;;15.82;72.36;94483.16;5133840;27;20847;-75
2022/09/15 01:48:52;;;;;;;3.30;2.80;;;;;;;15.91;71.41;94480.97;5133190;27;20623;-75
2022/09/15 01:51:19;;;;;;;4.00;2.88;;;;;;;15.91;71.41;94476.28;5133413;27;20265;-75
2022/09/15 01:53:48;;;;;;;5.82;2.40;;;;;;;15.94;71.76;94485.69;5133665;27;20593;-75
2022/09/15 01:56:15;;;;;;;4.38;3.08;;;;;;;15.87;73.26;94471.91;5133347;27;20197;-75
2022/09/15 01:58:42;;;;;;;3.60;2.80;;;;;;;15.75;73.47;94483.00;5133661;27;20220;-75
2022/09/15 02:01:13;;;;;;;4.18;2.88;;;;;;;15.77;72.89;94476.03;5133575;27;20659;-75
2022/09/15 02:03:46;;;;;;;7.10;2.53;;;;;;;15.98;70.83;94470.16;5133392;27;20593;-75
2022/09/15 02:06:21;;;;;;;4.25;2.50;;;;;;;15.99;71.11;94471.72;5133866;27;20261;-75
2022/09/15 02:08:53;;;;;;;5.70;2.30;;;;;;;16.17;70.14;94461.88;5133215;27;20256;-75
2022/09/15 02:11:27;;;;;;;5.80;2.70;;;;;;;16.01;70.93;94463.94;5133373;27;20205;-74
2022/09/15 02:14:02;;;;;;;2.90;2.20;;;;;;;16.11;69.96;94455.16;5133083;27;20193;-75
2022/09/15 02:16:34;;;;;;;3.60;2.50;;;;;;;16.16;69.62;94454.81;5133534;27;20188;-74
2022/09/15 02:19:11;;;;;;;7.38;2.40;;;;;;;16.15;69.36;94457.91;5132927;27;20577;-75
2022/09/15 02:21:52;;;;;;;5.47;2.58;;;;;;;16.12;69.79;94464.94;5133149;27;20200;-74
2022/09/15 02:24:25;;;;;;;5.40;2.35;;;;;;;16.04;70.17;94459.69;5119392;27;20609;-74
2022/09/15 02:26:54;;;;;;;3.55;2.78;;;;;;;15.85;71.72;94466.03;5132651;27;20621;-74
2022/09/15 02:29:26;;;;;;;6.43;2.83;;;;;;;15.58;72.81;94465.94;5132636;27;20286;-75
2022/09/15 02:31:56;;;;;;;2.70;2.30;;;;;;;15.60;73.06;94460.13;5133063;27;20200;-74
2022/09/15 02:34:27;;;;;;;4.20;2.33;;;;;;;15.49;73.18;94465.38;5132914;27;20544;-75
2022/09/15 02:36:57;;;;;;;5.65;2.63;;;;;;;15.42;73.55;94451.59;5133095;27;20197;-74
2022/09/15 02:39:29;;;;;;;7.53;2.78;;;;;;;15.40;73.44;94459.38;5132883;27;20209;-74
2022/09/15 02:41:56;;;;;;;2.90;2.40;;;;;;;15.41;73.65;94452.75;5131472;27;20196;-75
2022/09/15 02:44:23;;;;;;;3.50;2.42;;;;;;;15.37;73.91;94459.28;5132525;27;20221;-75
2022/09/15 02:46:50;;;;;;;3.50;2.38;;;;;;;15.36;73.59;94455.75;5132748;27;20320;-74
2022/09/15 02:49:18;;;;;;;3.47;2.10;;;;;;;15.32;73.60;94443.97;5132415;27;20233;-75
2022/09/15 02:51:45;;;;;;;6.90;2.40;;;;;;;15.31;73.69;94452.56;5131736;27;20208;-75
2022/09/15 02:54:13;;;;;;;6.68;2.80;;;;;;;15.14;75.23;94470.16;5132285;27;20265;-75
2022/09/15 02:56:40;;;;;;;3.47;2.55;;;;;;;15.24;74.26;94458.66;5132270;27;20265;-75
2022/09/15 02:59:07;;;;;;;4.88;2.97;;;;;;;15.16;74.57;94460.47;5132035;27;20201;-75
2022/09/15 03:01:34;;;;;;;4.05;2.33;;;;;;;15.18;74.81;94449.97;5132441;27;20538;-74
2022/09/15 03:04:03;;;;;;;4.13;2.20;;;;;;;15.18;74.16;94466.34;5132198;27;20229;-75
2022/09/15 03:06:33;;;;;;;4.47;2.65;;;;;;;15.18;74.40;94460.09;5132339;27;20220;-74
2022/09/15 03:09:03;;;;;;;3.58;2.28;;;;;;;15.34;73.27;94452.59;5132177;27;20226;-76
2022/09/15 03:11:32;;;;;;;3.50;2.55;;;;;;;15.31;73.78;94469.69;5132098;27;20249;-75
2022/09/15 03:14:01;;;;;;;4.97;2.55;;;;;;;15.26;73.98;94461.81;5131950;27;20193;-75
2022/09/15 03:16:29;;;;;;;3.50;2.97;;;;;;;15.25;74.29;94468.44;5131984;27;20204;-75
2022/09/15 03:18:58;;;;;;;3.20;2.40;;;;;;;15.12;75.03;94486.09;5132015;27;20529;-76
2022/09/15 03:21:26;;;;;;;3.95;2.80;;;;;;;15.06;75.22;94484.78;5131589;27;20205;-74
2022/09/15 03:23:53;;;;;;;3.95;2.70;;;;;;;15.00;76.18;94475.34;5131609;27;20208;-75
2022/09/15 03:26:20;;;;;;;4.10;2.70;;;;;;;14.88;75.69;94487.97;5131648;27;20296;-74
2022/09/15 03:28:48;;;;;;;11.55;2.70;;;;;;;14.88;76.44;94484.47;5131672;27;20268;-76
2022/09/15 03:31:15;;;;;;;8.27;2.60;;;;;;;14.96;76.01;94496.28;5131341;27;20204;-76
2022/09/15 03:33:42;;;;;;;3.67;2.67;;;;;;;14.88;76.26;94490.69;5132034;27;20192;-75
2022/09/15 03:36:09;;;;;;;5.40;3.17;;;;;;;14.83;76.29;94488.25;5132096;27;20201;-75
2022/09/15 03:38:36;;;;;;;4.35;2.53;;;;;;;14.60;77.32;94494.75;5131630;27;20246;-76
2022/09/15 03:41:06;;;;;;;5.05;2.63;;;;;;;14.70;76.89;94494.97;5131875;27;20197;-75
2022/09/15 03:43:34;;;;;;;4.25;2.50;;;;;;;14.69;77.13;94476.25;5131679;27;20311;-75
2022/09/15 03:46:03;;;;;;;5.25;2.42;;;;;;;14.71;76.51;94490.31;5131524;27;20767;-75
2022/09/15 03:48:33;;;;;;;6.40;2.80;;;;;;;14.52;77.64;94496.50;5131350;27;20244;-75
2022/09/15 03:51:00;;;;;;;4.32;2.63;;;;;;;14.48;77.31;94498.38;5131493;27;20208;-76
2022/09/15 03:53:27;;;;;;;6.72;2.83;;;;;;;14.50;77.68;94485.97;5130394;27;20209;-74
2022/09/15 03:55:54;;;;;;;7.25;2.60;;;;;;;14.55;77.68;94477.50;5131142;27;20201;-76
2022/09/15 03:58:21;;;;;;;8.75;4.88;;;;;;;14.77;76.66;94469.78;5131530;27;20269;-75
2022/09/15 04:00:48;;;;;;;12.05;4.35;;;;;;;14.84;76.65;94473.47;5130474;27;20211;-76
2022/09/15 04:03:16;;;;;;;8.48;3.58;;;;;;;14.87;76.16;94478.22;5131092;27;20246;-75
2022/09/15 04:05:43;;;;;;;5.63;3.08;;;;;;;14.86;76.15;94481.28;5131474;27;20216;-75
2022/09/15 04:08:12;;;;;;;12.60;6.18;;;;;;;14.78;76.65;94488.50;5124137;27;20228;-75
2022/09/15 04:10:40;;;;;;;10.55;4.20;;;;;;;14.74;76.70;94487.66;5126686;27;20208;-73
2022/09/15 04:13:07;;;;;;;8.82;3.33;;;;;;;14.74;77.22;94484.94;5131077;27;20212;-74
2022/09/15 04:15:34;;;;;;;8.02;3.53;;;;;;;14.90;76.03;94484.84;5130907;27;20254;-73
2022/09/15 04:18:01;;;;;;;6.13;3.72;;;;;;;15.01;75.70;94491.34;5131044;27;20605;-73
2022/09/15 04:20:29;;;;;;;5.88;3.50;;;;;;;15.16;74.77;94490.50;5130553;27;20201;-73
2022/09/15 04:22:56;;;;;;;13.85;3.53;;;;;;;15.24;74.89;94481.28;5130514;27;20334;-73
2022/09/15 04:25:23;;;;;;;8.95;3.28;;;;;;;15.48;73.78;94474.72;5130174;27;20197;-73
2022/09/15 04:27:49;;;;;;;9.52;2.97;;;;;;;15.60;73.21;94471.84;5130656;27;20586;-74
2022/09/15 04:30:16;;;;;;;6.65;3.20;;;;;;;15.82;72.29;94472.22;5130809;27;20296;-74
2022/09/15 04:32:43;;;;;;;12.05;3.08;;;;;;;16.13;71.18;94466.47;5130618;27;20197;-74
2022/09/15 04:35:11;;;;;;;6.55;3.30;;;;;;;16.39;70.38;94473.13;5130722;27;20295;-73
2022/09/15 04:37:39;;;;;;;6.85;3.25;;;;;;;16.80;69.10;94476.88;5130900;27;20193;-73
2022/09/15 04:40:07;;;;;;;5.25;3.10;;;;;;;17.37;67.52;94478.34;5130388;27;20250;-74
2022/09/15 04:42:34;;;;;;;8.05;3.47;;;;;;;17.64;66.07;94476.31;5130330;27;20217;-74
2022/09/15 04:45:01;;;;;;;5.35;2.90;;;;;;;18.03;64.29;94466.53;5130494;27;20235;-74
2022/09/15 04:47:28;;;;;;;5.20;3.28;;;;;;;18.65;62.68;94468.56;5130361;27;20292;-75
2022/09/15 04:49:55;;;;;;;4.35;2.90;;;;;;;19.03;61.50;94465.25;5129990;27;20221;-75
2022/09/15 04:52:22;;;;;;;6.88;2.90;;;;;;;19.45;59.67;94461.88;5130123;28;20201;-75
2022/09/15 04:54:50;;;;;;;16.77;9.48;;;;;;;20.25;58.33;94458.88;5129951;27;20205;-75
2022/09/15 04:57:17;;;;;;;12.50;4.13;;;;;;;20.89;55.36;94450.59;5130080;27;20217;-74
2022/09/15 04:59:43;;;;;;;6.78;3.95;;;;;;;20.98;54.28;94453.72;5130295;27;20201;-75
2022/09/15 05:02:10;;;;;;;5.78;2.83;;;;;;;21.30;53.83;94466.63;5119893;27;20205;-73
2022/09/15 05:04:37;;;;;;;7.85;3.75;;;;;;;21.62;52.97;94470.00;5129649;27;20201;-74
2022/09/15 05:07:04;;;;;;;8.25;4.05;;;;;;;22.07;52.10;94461.88;5134156;27;20215;-76
2022/09/15 05:09:31;;;;;;;14.05;4.00;;;;;;;21.82;51.16;94460.03;5134238;27;20197;-74
2022/09/15 05:11:59;;;;;;;7.22;3.95;;;;;;;21.66;51.72;94457.00;5133965;27;20667;-75
2022/09/15 05:14:26;;;;;;;9.57;3.38;;;;;;;20.94;53.31;94461.19;5134128;27;20205;-74
2022/09/15 05:16:53;;;;;;;10.43;3.60;;;;;;;21.52;51.96;94457.06;5134769;27;20235;-72
2022/09/15 05:19:19;;;;;;;8.15;3.90;;;;;;;22.12;50.06;94456.72;5134695;27;20201;-74
2022/09/15 05:21:46;;;;;;;8.88;3.83;;;;;;;22.44;49.76;94450.94;5134321;27;20787;-75
2022/09/15 05:24:13;;;;;;;7.82;3.95;;;;;;;23.29;47.40;94433.50;5133745;27;20205;-75
2022/09/15 05:26:40;;;;;;;11.82;3.38;;;;;;;23.32;47.23;94438.22;5133339;27;20297;-74
2022/09/15 05:29:08;;;;;;;9.07;3.20;;;;;;;23.31;47.00;94438.63;5133421;27;20224;-73
2022/09/15 05:31:35;;;;;;;13.93;3.97;;;;;;;23.58;46.63;94427.63;5134008;27;20197;-72
2022/09/15 05:34:04;;;;;;;7.30;3.67;;;;;;;24.44;44.68;94439.03;5133331;27;20209;-71
2022/09/15 05:36:32;;;;;;;8.52;3.10;;;;;;;24.29;44.87;94429.38;5132626;27;20193;-73
2022/09/15 05:39:00;;;;;;;8.68;3.22;;;;;;;24.15;44.12;94435.13;5133738;27;20617;-74
2022/09/15 05:41:28;;;;;;;8.05;3.17;;;;;;;24.84;42.72;94417.75;5133363;27;20197;-72
2022/09/15 05:43:56;;;;;;;5.90;3.50;;;;;;;25.26;42.49;94413.41;5132730;27;20193;-75
2022/09/15 05:46:26;;;;;;;4.80;3.20;;;;;;;25.05;42.48;94406.28;5133243;27;20284;-74
2022/09/15 05:48:54;;;;;;;6.72;3.25;;;;;;;24.80;43.33;94417.81;5132313;27;20235;-76
2022/09/15 05:51:21;;;;;;;7.60;3.45;;;;;;;25.42;41.98;94413.44;5133169;27;20283;-72
2022/09/15 05:53:48;;;;;;;8.07;3.78;;;;;;;25.76;42.20;94409.59;5133942;27;20257;-74
2022/09/15 05:56:16;;;;;;;4.82;3.10;;;;;;;26.59;39.33;94409.22;5132977;27;20216;-74
2022/09/15 05:58:46;;;;;;;6.13;3.00;;;;;;;26.83;38.90;94408.56;5131624;27;20199;-74
2022/09/15 06:01:14;;;;;;;7.90;3.22;;;;;;;26.40;40.19;94397.00;5133393;27;20201;-73
2022/09/15 06:03:43;;;;;;;11.43;3.58;;;;;;;27.17;38.98;94391.41;5132628;27;20193;-74
2022/09/15 06:06:10;;;;;;;6.13;3.70;;;;;;;27.79;37.95;94392.00;5130799;27;20316;-73
2022/09/15 06:08:40;;;;;;;10.25;2.80;;;;;;;26.89;37.83;94394.94;5132765;27;20683;-74
2022/09/15 06:11:09;;;;;;;7.88;3.25;;;;;;;27.90;36.70;94388.88;5132742;27;20189;-73
2022/09/15 06:13:36;;;;;;;8.02;3.13;;;;;;;28.77;35.97;94378.09;5130948;27;20253;-73
2022/09/15 06:16:05;;;;;;;6.70;2.97;;;;;;;28.42;36.68;94390.44;5132258;27;20193;-74
2022/09/15 06:18:32;;;;;;;8.43;3.40;;;;;;;27.91;36.53;94407.16;5125656;27;20257;-74
2022/09/15 06:21:08;;;;;;;8.85;3.92;;;;;;;27.94;37.75;94407.03;5132368;27;20281;-72
2022/09/15 06:23:35;;;;;;;7.90;3.80;;;;;;;27.38;38.17;94420.63;5131989;27;20189;-74
2022/09/15 06:26:09;;;;;;;9.50;4.18;;;;;;;26.99;39.74;94420.91;5132592;27;20207;-75
2022/09/15 06:28:36;;;;;;;8.63;3.90;;;;;;;27.10;39.01;94415.84;5130058;27;20220;-72
2022/09/15 06:31:03;;;;;;;10.07;4.07;;;;;;;27.42;38.75;94387.91;5130541;27;20243;-74
2022/09/15 06:33:30;;;;;;;9.48;4.50;;;;;;;27.68;39.35;94396.31;5130270;27;20261;-74
2022/09/15 06:36:01;;;;;;;8.48;3.92;;;;;;;27.90;37.41;94397.22;5130213;27;20197;-73
2022/09/15 06:38:30;;;;;;;9.95;3.95;;;;;;;28.36;36.47;94403.38;5132225;27;20276;-74
2022/09/15 06:40:58;;;;;;;9.65;3.70;;;;;;;27.50;38.12;94400.38;5131704;27;20225;-74
2022/09/15 06:43:25;;;;;;;10.52;3.58;;;;;;;26.92;39.44;94394.06;5131709;27;20633;-73
2022/09/15 06:45:52;;;;;;;7.60;3.40;;;;;;;27.12;39.62;94391.16;5132060;27;20225;-73
2022/09/15 06:48:19;;;;;;;10.80;4.10;;;;;;;28.88;36.26;94392.47;5131194;27;20241;-73
2022/09/15 06:50:53;;;;;;;9.88;4.00;;;;;;;28.16;36.96;94407.16;5131809;27;20613;-73
2022/09/15 06:53:20;;;;;;;9.55;4.75;;;;;;;27.28;38.22;94416.13;5131323;27;20189;-73
2022/09/15 06:55:48;;;;;;;8.27;4.43;;;;;;;28.01;37.44;94396.91;5130444;27;20209;-72
2022/09/15 06:58:15;;;;;;;9.82;4.45;;;;;;;28.07;38.16;94409.81;5131251;27;20201;-73
2022/09/15 07:00:42;;;;;;;8.70;4.20;;;;;;;28.13;37.21;94407.28;5130357;27;20209;-72
2022/09/15 07:03:09;;;;;;;8.40;3.88;;;;;;;28.00;38.59;94410.06;5131626;27;20205;-72
2022/09/15 07:05:35;;;;;;;9.30;4.10;;;;;;;27.85;37.06;94420.06;5129147;27;20232;-73
2022/09/15 07:08:03;;;;;;;9.23;4.03;;;;;;;27.86;38.47;94425.22;5130665;27;20262;-73
2022/09/15 07:10:30;;;;;;;5.63;3.58;;;;;;;27.79;39.51;94421.84;5131684;27;20725;-73
2022/09/15 07:13:00;;;;;;;10.77;4.20;;;;;;;28.28;36.60;94441.84;5131665;27;20209;-72
2022/09/15 07:15:26;;;;;;;7.45;3.60;;;;;;;28.07;37.31;94442.47;5131002;27;20568;-71
2022/09/15 07:17:53;;;;;;;7.22;3.40;;;;;;;27.18;38.59;94461.72;5131438;27;20337;-70
2022/09/15 07:20:20;;;;;;;7.78;3.88;;;;;;;26.41;40.11;94459.69;5130853;27;20662;-71
2022/09/15 07:22:47;;;;;;;6.40;3.42;;;;;;;26.82;39.55;94457.06;5131961;27;20605;-71
2022/09/15 07:25:14;;;;;;;7.25;2.92;;;;;;;26.60;39.68;94461.59;5131017;27;20201;-73
2022/09/15 07:27:41;;;;;;;5.78;3.60;;;;;;;26.06;40.26;94462.06;5130638;27;20201;-74
2022/09/15 07:30:10;;;;;;;9.90;3.75;;;;;;;26.53;40.00;94468.09;5130925;27;20205;-74
2022/09/15 07:32:37;;;;;;;8.35;3.50;;;;;;;26.30;39.75;94470.25;5130844;27;20827;-74
2022/09/15 07:35:04;;;;;;;5.60;3.25;;;;;;;25.79;41.23;94480.91;5130463;27;20270;-73
2022/09/15 07:37:32;;;;;;;7.88;3.72;;;;;;;25.70;42.54;94486.22;5131350;27;20345;-73
2022/09/15 07:39:59;;;;;;;6.63;3.45;;;;;;;25.36;41.72;94492.03;5130998;27;20219;-73
2022/09/15 07:42:25;;;;;;;5.35;3.67;;;;;;;25.64;41.05;94485.16;5131358;27;20229;-73
2022/09/15 07:44:52;;;;;;;9.93;3.38;;;;;;;25.88;41.11;94478.31;5130311;27;20689;-73
2022/09/15 07:47:21;;;;;;;8.15;3.40;;;;;;;26.53;42.13;94472.88;5131266;27;20251;-73
2022/09/15 07:49:49;;;;;;;9.15;3.30;;;;;;;26.77;40.55;94477.06;5130150;27;20244;-73
2022/09/15 07:52:16;;;;;;;7.28;4.60;;;;;;;26.15;40.83;94481.66;5130935;27;20204;-74
2022/09/15 07:54:43;;;;;;;8.50;4.47;;;;;;;25.77;41.86;94472.22;5130210;27;20580;-74
2022/09/15 07:57:09;;;;;;;12.88;4.45;;;;;;;25.50;42.67;94462.03;5130813;27;20209;-73
2022/09/15 07:59:36;;;;;;;7.63;4.07;;;;;;;25.79;42.11;94462.25;5130411;27;20208;-73
2022/09/15 08:02:03;;;;;;;10.77;4.00;;;;;;;26.10;42.34;94471.06;5129548;27;20258;-73
2022/09/15 08:04:31;;;;;;;8.65;4.30;;;;;;;25.64;43.42;94466.53;5130854;27;20208;-72
2022/09/15 08:06:58;;;;;;;10.10;4.20;;;;;;;25.43;42.67;94464.16;5130697;27;20230;-71
2022/09/15 08:09:25;;;;;;;8.45;4.53;;;;;;;25.20;43.04;94467.78;5129444;27;20278;-72
2022/09/15 08:11:52;;;;;;;8.38;4.32;;;;;;;25.32;43.86;94464.38;5130029;27;20205;-73
2022/09/15 08:14:19;;;;;;;9.38;4.75;;;;;;;25.73;42.39;94465.94;5130251;27;20215;-73
2022/09/15 08:16:46;;;;;;;7.28;4.50;;;;;;;26.01;42.32;94457.00;5130248;27;20212;-73
2022/09/15 08:19:12;;;;;;;9.02;4.78;;;;;;;25.92;41.85;94456.81;5130617;27;20220;-73
2022/09/15 08:21:41;;;;;;;7.75;4.13;;;;;;;25.73;42.09;94460.41;5129988;27;20270;-73
2022/09/15 08:24:09;;;;;;;14.20;5.18;;;;;;;26.13;42.43;94459.09;5129820;27;20205;-73
2022/09/15 08:26:37;;;;;;;7.30;4.20;;;;;;;26.37;43.29;94447.88;5130648;27;20193;-73
2022/09/15 08:29:04;;;;;;;14.23;4.20;;;;;;;25.44;43.01;94455.41;5130002;27;20233;-72
2022/09/15 08:31:31;;;;;;;8.27;4.40;;;;;;;25.72;42.99;94436.63;5129969;27;20201;-73
2022/09/15 08:34:02;;;;;;;12.57;4.07;;;;;;;26.11;41.66;94430.19;5129129;27;20261;-73
2022/09/15 08:36:30;;;;;;;11.70;4.07;;;;;;;26.36;42.22;94432.44;5130472;27;20211;-73
2022/09/15 08:38:58;;;;;;;6.45;3.67;;;;;;;25.92;41.75;94423.50;5129986;27;20197;-73
2022/09/15 08:41:30;;;;;;;14.43;4.30;;;;;;;26.12;42.17;94427.00;5129280;27;20242;-73
2022/09/15 08:44:02;;;;;;;8.95;4.22;;;;;;;26.25;41.82;94423.53;5129845;27;20185;-73
2022/09/15 08:46:35;;;;;;;8.20;4.05;;;;;;;26.55;40.97;94423.22;5129348;27;20550;-73
2022/09/15 08:49:08;;;;;;;11.02;3.95;;;;;;;26.64;40.68;94423.38;5129478;27;20332;-72
2022/09/15 08:51:43;;;;;;;12.20;3.85;;;;;;;26.35;41.20;94416.97;5129643;28;20209;-73
2022/09/15 08:54:18;;;;;;;6.22;3.40;;;;;;;26.10;42.00;94412.00;5130159;28;20197;-73
2022/09/15 08:56:45;;;;;;;10.30;3.55;;;;;;;26.45;40.48;94413.16;5129801;28;20201;-73
2022/09/15 08:59:17;;;;;;;9.07;4.28;;;;;;;26.23;42.21;94403.75;5129790;28;20197;-73
2022/09/15 09:02:20;;;;;;;8.68;4.75;;;;;;;26.20;42.64;94406.19;5129684;28;20544;-74
2022/09/15 09:05:13;;;;;;;9.63;4.10;;;;;;;26.73;41.57;94398.53;5128169;28;20192;-73
2022/09/15 09:08:09;;;;;;;10.68;3.83;;;;;;;26.19;41.33;94401.06;5129560;28;20201;-72
2022/09/15 09:10:45;;;;;;;8.82;4.45;;;;;;;26.52;41.60;94404.63;5129493;28;20201;-73
2022/09/15 09:13:23;;;;;;;8.82;3.83;;;;;;;26.73;40.94;94403.31;5129822;28;20199;-73
2022/09/15 09:16:06;;;;;;;8.30;3.88;;;;;;;26.38;41.69;94393.88;5129939;28;20291;-73
2022/09/15 09:18:51;;;;;;;10.90;3.90;;;;;;;27.25;40.37;94386.41;5129652;28;20193;-73
2022/09/15 09:21:25;;;;;;;8.82;3.65;;;;;;;27.44;39.12;94385.47;5118168;28;20300;-73
2022/09/15 09:24:01;;;;;;;8.68;4.00;;;;;;;27.54;38.98;94381.59;5129529;27;20239;-72
2022/09/15 09:26:32;;;;;;;10.65;4.15;;;;;;;27.64;39.06;94376.16;5129390;28;20272;-72
2022/09/15 09:29:00;;;;;;;10.90;4.25;;;;;;;27.31;39.35;94384.66;5129396;28;20301;-73
2022/09/15 09:31:28;;;;;;;9.23;3.67;;;;;;;27.63;38.94;94380.16;5129518;28;20201;-72
2022/09/15 09:34:02;;;;;;;8.45;4.10;;;;;;;28.04;38.08;94368.94;5128949;28;20209;-73
2022/09/15 09:36:28;;;;;;;8.07;3.78;;;;;;;27.80;38.12;94357.38;5129487;27;20209;-73
2022/09/15 09:38:57;;;;;;;7.57;3.75;;;;;;;28.18;37.61;94360.16;5129510;28;20262;-72
2022/09/15 09:41:34;;;;;;;8.13;3.85;;;;;;;27.62;38.70;94345.19;5129286;28;20240;-72
2022/09/15 09:44:06;;;;;;;7.30;3.97;;;;;;;27.92;38.10;94344.66;5129055;28;20192;-73
2022/09/15 09:46:33;;;;;;;11.95;3.95;;;;;;;27.64;37.98;94353.91;5129143;28;20559;-73
2022/09/15 09:49:04;;;;;;;9.82;4.40;;;;;;;27.70;40.31;94368.84;5128748;28;20286;-72
2022/09/15 09:51:34;;;;;;;8.45;4.03;;;;;;;27.67;39.17;94364.16;5131289;27;20593;-73
2022/09/15 09:54:11;;;;;;;11.43;3.78;;;;;;;27.94;38.65;94364.50;5132689;27;20616;-72
2022/09/15 09:56:39;;;;;;;9.15;3.72;;;;;;;27.93;37.98;94360.94;5132451;27;20205;-72
2022/09/15 09:59:33;;;;;;;8.90;4.15;;;;;;;28.02;37.65;94351.88;5132985;27;20707;-72
2022/09/15 10:02:20;;;;;;;6.75;3.70;;;;;;;28.20;38.01;94368.06;5132775;27;20203;-72
2022/09/15 10:04:49;;;;;;;8.50;3.90;;;;;;;28.27;38.95;94346.34;5132049;27;20671;-73
2022/09/15 10:07:18;;;;;;;10.25;3.95;;;;;;;28.19;37.84;94350.56;5131696;27;20208;-72
2022/09/15 10:09:51;;;;;;;7.93;3.88;;;;;;;28.13;38.67;94352.34;5119037;27;20229;-72
2022/09/15 10:12:22;;;;;;;9.57;3.92;;;;;;;28.40;38.16;94349.09;5132441;27;20201;-73
2022/09/15 10:14:54;;;;;;;11.45;5.80;;;;;;;28.65;36.84;94351.03;5131669;27;20577;-72
2022/09/15 10:17:23;;;;;;;9.35;3.92;;;;;;;28.75;37.50;94347.09;5132464;27;20208;-73
2022/09/15 10:19:52;;;;;;;10.48;4.30;;;;;;;29.08;36.76;94341.19;5132276;27;20225;-72
2022/09/15 10:22:30;;;;;;;11.45;4.25;;;;;;;29.02;35.78;94343.00;5132746;27;20197;-72
2022/09/15 10:24:59;;;;;;;10.82;3.72;;;;;;;29.47;35.58;94346.13;5131831;27;20261;-72
2022/09/15 10:27:29;;;;;;;10.60;4.43;;;;;;;29.30;36.14;94334.34;5132020;27;20244;-73
2022/09/15 10:30:00;;;;;;;13.23;4.25;;;;;;;29.37;36.89;94338.13;5132103;27;20228;-72
2022/09/15 10:32:28;;;;;;;12.05;4.28;;;;;;;29.40;35.07;94331.63;5132271;27;20624;-72
2022/09/15 10:35:04;;;;;;;8.57;3.88;;;;;;;29.55;35.66;94339.00;5131391;27;20227;-72
2022/09/15 10:37:36;;;;;;;6.20;3.50;;;;;;;29.86;36.08;94315.88;5131909;27;20211;-72
2022/09/15 10:40:24;;;;;;;6.93;3.58;;;;;;;29.97;35.27;94321.84;5131945;27;20200;-72
2022/09/15 10:42:53;;;;;;;8.32;3.58;;;;;;;30.56;35.07;94329.03;5124422;27;20197;-71
2022/09/15 10:45:47;;;;;;;8.63;3.33;;;;;;;30.98;33.86;94323.59;5126363;27;20549;-72
2022/09/15 10:48:35;;;;;;;8.98;3.33;;;;;;;31.00;33.95;94321.13;5128352;27;20330;-72
2022/09/15 10:51:16;;;;;;;8.43;4.00;;;;;;;30.83;33.44;94319.09;5123825;27;20318;-72
2022/09/15 10:54:05;;;;;;;9.82;3.92;;;;;;;31.09;33.45;94315.53;5131243;27;20356;-73
2022/09/15 10:56:37;;;;;;;9.57;3.78;;;;;;;30.71;33.12;94312.41;5131362;27;20197;-72
2022/09/15 10:59:21;;;;;;;8.20;4.25;;;;;;;30.23;34.02;94311.22;5130928;27;20208;-70
2022/09/15 11:02:12;;;;;;;17.30;3.85;;;;;;;30.08;34.37;94305.44;5129492;27;20195;-72
2022/09/15 11:04:53;;;;;;;8.05;3.35;;;;;;;30.22;34.31;94301.28;5131142;27;20722;-72
2022/09/15 11:07:31;;;;;;;10.48;3.22;;;;;;;30.57;34.49;94296.25;5129653;27;20257;-72
2022/09/15 11:10:06;;;;;;;8.85;3.03;;;;;;;30.77;32.95;94298.56;5130413;27;20265;-72
2022/09/15 11:12:44;;;;;;;9.60;3.50;;;;;;;30.82;33.00;94283.97;5131533;27;20209;-72
2022/09/15 11:15:26;;;;;;;8.40;3.40;;;;;;;31.02;32.81;94282.25;5130501;27;20677;-72
2022/09/15 11:18:09;;;;;;;10.18;3.40;;;;;;;31.12;31.61;94274.63;5127844;27;20599;-71
2022/09/15 11:20:50;;;;;;;7.63;3.22;;;;;;;31.07;32.17;94273.22;5128222;27;20698;-72
2022/09/15 11:23:23;;;;;;;8.40;3.20;;;;;;;30.83;33.74;94275.09;5127534;27;20196;-72
2022/09/15 11:25:56;;;;;;;9.60;3.10;;;;;;;30.73;32.15;94270.78;5128701;27;20189;-72
2022/09/15 11:28:32;;;;;;;8.02;3.03;;;;;;;30.83;32.17;94269.50;5126992;27;20766;-72
2022/09/15 11:31:03;;;;;;;11.07;2.95;;;;;;;31.15;31.93;94261.72;5129350;27;20217;-73
2022/09/15 11:33:37;;;;;;;5.80;2.90;;;;;;;31.24;31.98;94258.91;5128902;27;20193;-73
2022/09/15 11:36:09;;;;;;;6.93;3.22;;;;;;;31.61;32.55;94253.94;5126763;27;20230;-73
2022/09/15 11:38:46;;;;;;;7.70;2.95;;;;;;;31.77;32.13;94257.19;5128620;27;20660;-73
2022/09/15 11:41:20;;;;;;;7.28;2.97;;;;;;;32.14;31.79;94251.38;5127445;27;20307;-73
2022/09/15 11:43:55;;;;;;;8.57;3.25;;;;;;;32.26;31.20;94258.78;5126829;27;20199;-73
2022/09/15 11:46:29;;;;;;;8.82;2.67;;;;;;;31.83;30.60;94248.13;5128680;27;20536;-73
2022/09/15 11:49:03;;;;;;;11.88;2.30;;;;;;;32.07;29.95;94243.31;5128217;27;20279;-72